sensor_id;sensor_type;location;lat;lon;timestamp;pressure;altitude;pressure_sealevel;temperature;humidity
20023;BME280;10172;42.054;24.546;2023-02-18T00:00:16;98839.94;;;7.48;55.11
20023;BME280;10172;42.054;24.546;2023-02-18T00:02:43;98832.59;;;7.90;52.64
20023;BME280;10172;42.054;24.546;2023-02-18T00:05:09;98831.78;;;7.71;54.02
20023;BME280;10172;42.054;24.546;2023-02-18T00:07:35;98829.91;;;7.92;54.32
20023;BME280;10172;42.054;24.546;2023-02-18T00:10:01;98831.13;;;7.66;54.43
20023;BME280;10172;42.054;24.546;2023-02-18T00:12:29;98832.88;;;7.67;54.82
20023;BME280;10172;42.054;24.546;2023-02-18T00:14:54;98824.28;;;7.98;53.89
20023;BME280;10172;42.054;24.546;2023-02-18T00:17:20;98817.03;;;7.47;54.46
20023;BME280;10172;42.054;24.546;2023-02-18T00:19:46;98769.41;;;7.09;55.69
20023;BME280;10172;42.054;24.546;2023-02-18T00:22:12;98812.13;;;7.39;55.41
20023;BME280;10172;42.054;24.546;2023-02-18T00:24:37;98789.53;;;7.32;55.68
20023;BME280;10172;42.054;24.546;2023-02-18T00:27:03;98785.13;;;6.94;55.82
20023;BME280;10172;42.054;24.546;2023-02-18T00:29:29;98773.34;;;7.19;54.74
20023;BME280;10172;42.054;24.546;2023-02-18T00:31:54;98790.50;;;7.48;54.12
20023;BME280;10172;42.054;24.546;2023-02-18T00:34:20;98818.75;;;7.10;55.97
20023;BME280;10172;42.054;24.546;2023-02-18T00:36:45;98789.94;;;6.84;56.88
20023;BME280;10172;42.054;24.546;2023-02-18T00:39:11;98767.09;;;6.83;56.88
20023;BME280;10172;42.054;24.546;2023-02-18T00:41:38;98770.25;;;6.91;56.35
20023;BME280;10172;42.054;24.546;2023-02-18T00:44:04;98770.38;;;6.88;56.19
20023;BME280;10172;42.054;24.546;2023-02-18T00:46:30;98772.56;;;6.79;57.00
20023;BME280;10172;42.054;24.546;2023-02-18T00:48:55;98767.28;;;6.79;55.97
20023;BME280;10172;42.054;24.546;2023-02-18T00:51:22;98770.63;;;7.02;55.79
20023;BME280;10172;42.054;24.546;2023-02-18T00:53:49;98791.56;;;7.26;56.03
20023;BME280;10172;42.054;24.546;2023-02-18T00:56:15;98736.22;;;6.84;55.66
20023;BME280;10172;42.054;24.546;2023-02-18T00:58:40;98740.28;;;6.52;57.53
20023;BME280;10172;42.054;24.546;2023-02-18T01:01:08;98725.44;;;6.88;55.41
20023;BME280;10172;42.054;24.546;2023-02-18T01:03:39;98728.94;;;7.07;56.04
20023;BME280;10172;42.054;24.546;2023-02-18T01:06:05;98742.97;;;7.64;52.44
20023;BME280;10172;42.054;24.546;2023-02-18T01:08:31;98719.28;;;7.06;54.34
20023;BME280;10172;42.054;24.546;2023-02-18T01:10:58;98701.75;;;6.85;55.03
20023;BME280;10172;42.054;24.546;2023-02-18T01:13:23;98686.44;;;6.73;55.50
20023;BME280;10172;42.054;24.546;2023-02-18T01:15:50;98708.34;;;6.95;54.23
20023;BME280;10172;42.054;24.546;2023-02-18T01:18:16;98730.31;;;6.97;55.66
20023;BME280;10172;42.054;24.546;2023-02-18T01:20:42;98727.28;;;6.86;57.28
20023;BME280;10172;42.054;24.546;2023-02-18T01:23:08;98700.22;;;7.00;55.15
20023;BME280;10172;42.054;24.546;2023-02-18T01:25:35;98716.78;;;7.03;54.87
20023;BME280;10172;42.054;24.546;2023-02-18T01:28:01;98677.50;;;6.57;56.23
20023;BME280;10172;42.054;24.546;2023-02-18T01:30:26;98667.41;;;6.46;57.00
20023;BME280;10172;42.054;24.546;2023-02-18T01:32:52;98675.59;;;6.60;56.90
20023;BME280;10172;42.054;24.546;2023-02-18T01:35:19;98697.25;;;6.87;56.28
20023;BME280;10172;42.054;24.546;2023-02-18T01:37:45;98671.94;;;7.00;54.43
20023;BME280;10172;42.054;24.546;2023-02-18T01:40:16;98676.03;;;6.89;55.47
20023;BME280;10172;42.054;24.546;2023-02-18T01:42:41;98688.03;;;7.14;54.77
20023;BME280;10172;42.054;24.546;2023-02-18T01:47:58;98648.78;;;7.41;51.65
20023;BME280;10172;42.054;24.546;2023-02-18T01:50:25;98659.03;;;6.94;55.30
20023;BME280;10172;42.054;24.546;2023-02-18T01:52:51;98659.75;;;7.34;52.89
20023;BME280;10172;42.054;24.546;2023-02-18T01:55:17;98662.53;;;7.66;51.20
20023;BME280;10172;42.054;24.546;2023-02-18T01:57:42;98667.72;;;7.68;49.93
20023;BME280;10172;42.054;24.546;2023-02-18T02:00:14;98688.91;;;7.51;52.78
20023;BME280;10172;42.054;24.546;2023-02-18T02:02:44;98692.38;;;7.34;53.13
20023;BME280;10172;42.054;24.546;2023-02-18T02:05:10;98690.03;;;7.81;51.62
20023;BME280;10172;42.054;24.546;2023-02-18T02:07:37;98695.41;;;8.14;49.13
20023;BME280;10172;42.054;24.546;2023-02-18T02:10:03;98696.75;;;7.16;52.93
20023;BME280;10172;42.054;24.546;2023-02-18T02:34:56;98720.22;;;7.05;55.21
20023;BME280;10172;42.054;24.546;2023-02-18T02:37:44;98744.41;;;7.88;51.90
20023;BME280;10172;42.054;24.546;2023-02-18T02:45:36;98747.22;;;7.85;49.97
20023;BME280;10172;42.054;24.546;2023-02-18T02:53:47;98740.66;;;7.20;54.10
20023;BME280;10172;42.054;24.546;2023-02-18T02:56:14;98735.88;;;6.91;55.91
20023;BME280;10172;42.054;24.546;2023-02-18T02:58:40;98734.72;;;7.34;53.70
20023;BME280;10172;42.054;24.546;2023-02-18T03:07:20;98747.41;;;7.99;51.79
20023;BME280;10172;42.054;24.546;2023-02-18T03:10:08;98730.25;;;7.53;53.50
20023;BME280;10172;42.054;24.546;2023-02-18T03:18:18;98728.06;;;6.88;54.97
20023;BME280;10172;42.054;24.546;2023-02-18T03:20:56;98729.41;;;6.59;56.30
20023;BME280;10172;42.054;24.546;2023-02-18T03:23:27;98727.72;;;6.57;57.74
20023;BME280;10172;42.054;24.546;2023-02-18T03:25:56;98720.91;;;6.90;57.01
20023;BME280;10172;42.054;24.546;2023-02-18T03:28:25;98726.03;;;6.56;58.34
20023;BME280;10172;42.054;24.546;2023-02-18T03:30:56;98701.47;;;6.34;58.27
20023;BME280;10172;42.054;24.546;2023-02-18T03:33:31;98705.41;;;6.44;58.19
20023;BME280;10172;42.054;24.546;2023-02-18T03:35:59;98714.84;;;6.49;58.32
20023;BME280;10172;42.054;24.546;2023-02-18T03:38:34;98713.59;;;6.58;58.02
20023;BME280;10172;42.054;24.546;2023-02-18T03:41:00;98698.66;;;6.57;57.32
20023;BME280;10172;42.054;24.546;2023-02-18T03:43:27;98694.75;;;6.84;55.62
20023;BME280;10172;42.054;24.546;2023-02-18T03:45:53;98695.06;;;6.78;56.13
20023;BME280;10172;42.054;24.546;2023-02-18T03:48:18;98699.97;;;6.67;56.81
20023;BME280;10172;42.054;24.546;2023-02-18T03:50:44;98694.47;;;6.90;55.52
20023;BME280;10172;42.054;24.546;2023-02-18T03:53:09;98708.94;;;6.63;57.01
20023;BME280;10172;42.054;24.546;2023-02-18T03:55:35;98707.66;;;6.92;54.38
20023;BME280;10172;42.054;24.546;2023-02-18T03:58:00;98700.63;;;6.72;56.54
20023;BME280;10172;42.054;24.546;2023-02-18T04:00:26;98701.34;;;6.76;56.85
20023;BME280;10172;42.054;24.546;2023-02-18T04:02:51;98703.63;;;6.83;56.49
20023;BME280;10172;42.054;24.546;2023-02-18T04:05:17;98713.56;;;6.78;56.91
20023;BME280;10172;42.054;24.546;2023-02-18T04:07:42;98731.06;;;6.62;57.63
20023;BME280;10172;42.054;24.546;2023-02-18T04:10:08;98719.41;;;6.85;56.68
20023;BME280;10172;42.054;24.546;2023-02-18T04:12:34;98680.53;;;6.68;55.97
20023;BME280;10172;42.054;24.546;2023-02-18T04:14:59;98695.56;;;6.86;55.44
20023;BME280;10172;42.054;24.546;2023-02-18T04:17:25;98673.00;;;6.40;56.85
20023;BME280;10172;42.054;24.546;2023-02-18T04:19:50;98639.31;;;6.25;56.11
20023;BME280;10172;42.054;24.546;2023-02-18T04:22:16;98679.09;;;6.61;55.22
20023;BME280;10172;42.054;24.546;2023-02-18T04:24:42;98716.63;;;7.06;54.77
20023;BME280;10172;42.054;24.546;2023-02-18T04:27:07;98686.91;;;7.01;54.51
20023;BME280;10172;42.054;24.546;2023-02-18T04:29:33;98729.13;;;7.03;54.25
20023;BME280;10172;42.054;24.546;2023-02-18T04:31:58;98712.31;;;6.67;56.07
20023;BME280;10172;42.054;24.546;2023-02-18T04:34:24;98705.50;;;7.18;54.14
20023;BME280;10172;42.054;24.546;2023-02-18T04:36:49;98775.69;;;8.16;53.06
20023;BME280;10172;42.054;24.546;2023-02-18T04:39:15;98779.72;;;8.06;51.12
20023;BME280;10172;42.054;24.546;2023-02-18T04:41:40;98786.25;;;8.34;50.52
20023;BME280;10172;42.054;24.546;2023-02-18T04:44:06;98760.47;;;7.85;51.63
20023;BME280;10172;42.054;24.546;2023-02-18T04:46:31;98748.13;;;7.67;52.36
20023;BME280;10172;42.054;24.546;2023-02-18T04:48:57;98749.03;;;7.66;52.44
20023;BME280;10172;42.054;24.546;2023-02-18T04:51:23;98696.31;;;6.51;56.01
20023;BME280;10172;42.054;24.546;2023-02-18T04:53:48;98794.09;;;6.90;56.70
20023;BME280;10172;42.054;24.546;2023-02-18T04:56:14;98755.31;;;6.90;56.15
20023;BME280;10172;42.054;24.546;2023-02-18T04:58:39;98764.97;;;7.29;53.49
20023;BME280;10172;42.054;24.546;2023-02-18T05:01:05;98739.19;;;6.76;55.93
20023;BME280;10172;42.054;24.546;2023-02-18T05:03:31;98767.19;;;7.38;54.95
20023;BME280;10172;42.054;24.546;2023-02-18T05:05:56;98736.06;;;6.87;56.42
20023;BME280;10172;42.054;24.546;2023-02-18T05:08:22;98756.91;;;7.32;55.47
20023;BME280;10172;42.054;24.546;2023-02-18T05:10:48;98746.44;;;7.47;53.94
20023;BME280;10172;42.054;24.546;2023-02-18T05:13:13;98762.78;;;7.74;53.71
20023;BME280;10172;42.054;24.546;2023-02-18T05:15:39;98743.75;;;7.66;53.68
20023;BME280;10172;42.054;24.546;2023-02-18T05:18:04;98730.31;;;7.52;53.96
20023;BME280;10172;42.054;24.546;2023-02-18T05:20:30;98765.91;;;7.82;52.42
20023;BME280;10172;42.054;24.546;2023-02-18T05:22:56;98746.81;;;7.40;53.91
20023;BME280;10172;42.054;24.546;2023-02-18T05:25:21;98739.44;;;6.90;56.76
20023;BME280;10172;42.054;24.546;2023-02-18T05:27:47;98754.09;;;6.97;57.46
20023;BME280;10172;42.054;24.546;2023-02-18T05:30:12;98765.03;;;7.08;56.84
20023;BME280;10172;42.054;24.546;2023-02-18T05:32:38;98745.19;;;7.18;56.79
20023;BME280;10172;42.054;24.546;2023-02-18T05:35:03;98737.50;;;7.12;56.45
20023;BME280;10172;42.054;24.546;2023-02-18T05:37:29;98738.25;;;7.16;56.35
20023;BME280;10172;42.054;24.546;2023-02-18T05:39:55;98745.19;;;7.73;53.64
20023;BME280;10172;42.054;24.546;2023-02-18T05:42:20;98745.31;;;8.40;51.58
20023;BME280;10172;42.054;24.546;2023-02-18T05:44:47;98736.91;;;7.62;54.14
20023;BME280;10172;42.054;24.546;2023-02-18T05:47:13;98688.13;;;7.49;54.31
20023;BME280;10172;42.054;24.546;2023-02-18T05:49:39;98742.25;;;7.96;51.93
20023;BME280;10172;42.054;24.546;2023-02-18T05:52:06;98679.97;;;7.88;50.48
20023;BME280;10172;42.054;24.546;2023-02-18T05:54:32;98734.31;;;8.48;50.15
20023;BME280;10172;42.054;24.546;2023-02-18T05:56:57;98752.97;;;8.29;51.72
20023;BME280;10172;42.054;24.546;2023-02-18T05:59:23;98734.91;;;8.01;51.81
20023;BME280;10172;42.054;24.546;2023-02-18T06:01:49;98750.41;;;9.10;45.89
20023;BME280;10172;42.054;24.546;2023-02-18T06:04:15;98738.03;;;10.03;45.32
20023;BME280;10172;42.054;24.546;2023-02-18T06:06:41;98742.94;;;10.25;44.72
20023;BME280;10172;42.054;24.546;2023-02-18T06:09:07;98749.31;;;10.22;42.42
20023;BME280;10172;42.054;24.546;2023-02-18T06:11:33;98744.25;;;10.47;43.60
20023;BME280;10172;42.054;24.546;2023-02-18T06:13:58;98730.97;;;10.61;41.52
20023;BME280;10172;42.054;24.546;2023-02-18T06:16:24;98746.94;;;10.02;44.78
20023;BME280;10172;42.054;24.546;2023-02-18T06:18:49;98725.06;;;10.42;42.77
20023;BME280;10172;42.054;24.546;2023-02-18T06:21:15;98724.97;;;11.14;41.49
20023;BME280;10172;42.054;24.546;2023-02-18T06:23:41;98727.94;;;11.24;42.73
20023;BME280;10172;42.054;24.546;2023-02-18T06:26:06;98732.16;;;11.00;43.12
20023;BME280;10172;42.054;24.546;2023-02-18T06:28:32;98750.53;;;11.59;41.84
20023;BME280;10172;42.054;24.546;2023-02-18T06:30:57;98739.94;;;11.98;41.28
20023;BME280;10172;42.054;24.546;2023-02-18T06:33:23;98733.00;;;11.55;41.31
20023;BME280;10172;42.054;24.546;2023-02-18T06:36:00;98740.38;;;11.37;43.55
20023;BME280;10172;42.054;24.546;2023-02-18T06:38:26;98749.81;;;9.68;47.93
20023;BME280;10172;42.054;24.546;2023-02-18T06:40:52;98750.91;;;10.54;44.92
20023;BME280;10172;42.054;24.546;2023-02-18T06:43:19;98730.28;;;10.58;42.31
20023;BME280;10172;42.054;24.546;2023-02-18T06:45:45;98738.94;;;9.72;51.90
20023;BME280;10172;42.054;24.546;2023-02-18T06:48:12;98760.00;;;10.36;45.40
20023;BME280;10172;42.054;24.546;2023-02-18T06:50:40;98731.44;;;10.68;44.50
20023;BME280;10172;42.054;24.546;2023-02-18T06:53:05;98736.69;;;11.12;41.52
20023;BME280;10172;42.054;24.546;2023-02-18T06:55:31;98749.50;;;11.19;43.81
20023;BME280;10172;42.054;24.546;2023-02-18T06:57:56;98733.84;;;11.56;42.97
20023;BME280;10172;42.054;24.546;2023-02-18T07:00:22;98722.34;;;12.35;41.36
20023;BME280;10172;42.054;24.546;2023-02-18T07:02:47;98741.22;;;12.45;43.40
20023;BME280;10172;42.054;24.546;2023-02-18T07:05:13;98717.88;;;12.99;40.71
20023;BME280;10172;42.054;24.546;2023-02-18T07:07:39;98696.94;;;12.93;39.17
20023;BME280;10172;42.054;24.546;2023-02-18T07:10:05;98709.66;;;12.64;39.62
20023;BME280;10172;42.054;24.546;2023-02-18T07:12:31;98697.09;;;13.40;38.57
20023;BME280;10172;42.054;24.546;2023-02-18T07:14:57;98688.88;;;13.67;38.59
20023;BME280;10172;42.054;24.546;2023-02-18T07:17:22;98683.59;;;13.78;39.74
20023;BME280;10172;42.054;24.546;2023-02-18T07:19:48;98666.78;;;13.76;40.15
20023;BME280;10172;42.054;24.546;2023-02-18T07:22:13;98670.25;;;14.13;39.58
20023;BME280;10172;42.054;24.546;2023-02-18T07:24:39;98666.88;;;13.98;39.68
20023;BME280;10172;42.054;24.546;2023-02-18T07:27:04;98680.94;;;14.48;37.21
20023;BME280;10172;42.054;24.546;2023-02-18T07:29:30;98666.38;;;14.28;37.53
20023;BME280;10172;42.054;24.546;2023-02-18T07:31:55;98670.63;;;14.54;36.82
20023;BME280;10172;42.054;24.546;2023-02-18T07:34:21;98662.94;;;14.50;36.26
20023;BME280;10172;42.054;24.546;2023-02-18T07:36:47;98658.66;;;14.36;36.23
20023;BME280;10172;42.054;24.546;2023-02-18T07:39:12;98659.00;;;13.97;37.26
20023;BME280;10172;42.054;24.546;2023-02-18T07:41:39;98609.28;;;13.47;38.01
20023;BME280;10172;42.054;24.546;2023-02-18T07:44:04;98668.03;;;13.36;37.54
20023;BME280;10172;42.054;24.546;2023-02-18T07:46:30;98652.78;;;13.96;37.81
20023;BME280;10172;42.054;24.546;2023-02-18T07:48:56;98643.56;;;14.35;36.96
20023;BME280;10172;42.054;24.546;2023-02-18T07:51:22;98654.81;;;14.16;36.46
20023;BME280;10172;42.054;24.546;2023-02-18T07:53:47;98648.56;;;14.40;37.48
20023;BME280;10172;42.054;24.546;2023-02-18T07:56:13;98641.75;;;14.47;37.20
20023;BME280;10172;42.054;24.546;2023-02-18T07:58:38;98644.34;;;14.70;37.00
20023;BME280;10172;42.054;24.546;2023-02-18T08:01:09;98636.09;;;14.16;36.89
20023;BME280;10172;42.054;24.546;2023-02-18T08:03:35;98641.28;;;14.53;36.86
20023;BME280;10172;42.054;24.546;2023-02-18T08:06:03;98630.59;;;14.64;36.24
20023;BME280;10172;42.054;24.546;2023-02-18T08:08:30;98622.66;;;14.95;35.94
20023;BME280;10172;42.054;24.546;2023-02-18T08:10:58;98617.34;;;14.27;35.88
20023;BME280;10172;42.054;24.546;2023-02-18T08:13:26;98605.50;;;14.31;36.12
20023;BME280;10172;42.054;24.546;2023-02-18T08:15:54;98616.44;;;14.95;35.69
20023;BME280;10172;42.054;24.546;2023-02-18T08:18:22;98627.94;;;15.62;35.38
20023;BME280;10172;42.054;24.546;2023-02-18T08:20:48;98628.38;;;15.78;33.79
20023;BME280;10172;42.054;24.546;2023-02-18T08:23:17;98645.41;;;16.09;34.27
20023;BME280;10172;42.054;24.546;2023-02-18T08:25:48;98653.31;;;16.42;33.65
20023;BME280;10172;42.054;24.546;2023-02-18T08:28:13;98642.63;;;16.72;33.03
20023;BME280;10172;42.054;24.546;2023-02-18T08:30:46;98636.03;;;17.16;32.77
20023;BME280;10172;42.054;24.546;2023-02-18T08:33:13;98638.63;;;17.37;32.38
20023;BME280;10172;42.054;24.546;2023-02-18T08:35:39;98634.91;;;17.19;31.68
20023;BME280;10172;42.054;24.546;2023-02-18T08:38:05;98623.91;;;17.31;31.09
20023;BME280;10172;42.054;24.546;2023-02-18T08:40:30;98635.84;;;17.48;30.50
20023;BME280;10172;42.054;24.546;2023-02-18T08:42:56;98629.09;;;16.53;30.18
20023;BME280;10172;42.054;24.546;2023-02-18T08:45:21;98634.13;;;16.26;30.49
20023;BME280;10172;42.054;24.546;2023-02-18T08:47:47;98639.75;;;16.02;31.25
20023;BME280;10172;42.054;24.546;2023-02-18T08:50:12;98641.91;;;15.77;31.09
20023;BME280;10172;42.054;24.546;2023-02-18T08:52:38;98659.50;;;16.22;31.03
20023;BME280;10172;42.054;24.546;2023-02-18T08:55:04;98677.72;;;16.19;31.69
20023;BME280;10172;42.054;24.546;2023-02-18T08:57:30;98678.69;;;15.86;32.05
20023;BME280;10172;42.054;24.546;2023-02-18T08:59:55;98690.59;;;15.39;32.10
20023;BME280;10172;42.054;24.546;2023-02-18T09:02:21;98692.41;;;15.61;31.86
20023;BME280;10172;42.054;24.546;2023-02-18T09:04:46;98689.28;;;15.00;32.08
20023;BME280;10172;42.054;24.546;2023-02-18T09:07:12;98685.84;;;14.87;32.58
20023;BME280;10172;42.054;24.546;2023-02-18T09:09:37;98700.97;;;14.88;32.50
20023;BME280;10172;42.054;24.546;2023-02-18T09:12:03;98704.88;;;15.17;32.34
20023;BME280;10172;42.054;24.546;2023-02-18T09:14:30;98702.66;;;15.55;31.72
20023;BME280;10172;42.054;24.546;2023-02-18T09:16:56;98698.47;;;15.74;31.57
20023;BME280;10172;42.054;24.546;2023-02-18T09:19:22;98712.94;;;16.25;31.26
20023;BME280;10172;42.054;24.546;2023-02-18T09:21:48;98704.03;;;15.93;30.21
20023;BME280;10172;42.054;24.546;2023-02-18T09:24:14;98697.38;;;16.40;30.38
20023;BME280;10172;42.054;24.546;2023-02-18T09:26:39;98690.53;;;16.15;30.71
20023;BME280;10172;42.054;24.546;2023-02-18T09:29:05;98687.28;;;16.32;30.49
20023;BME280;10172;42.054;24.546;2023-02-18T09:31:30;98683.88;;;16.30;30.00
20023;BME280;10172;42.054;24.546;2023-02-18T09:33:58;98695.44;;;16.10;30.30
20023;BME280;10172;42.054;24.546;2023-02-18T09:36:25;98692.91;;;16.29;30.16
20023;BME280;10172;42.054;24.546;2023-02-18T09:38:51;98684.72;;;16.31;29.67
20023;BME280;10172;42.054;24.546;2023-02-18T09:41:38;98687.00;;;16.67;29.82
20023;BME280;10172;42.054;24.546;2023-02-18T09:44:28;98681.69;;;17.47;28.36
20023;BME280;10172;42.054;24.546;2023-02-18T09:47:05;98681.84;;;16.54;29.42
20023;BME280;10172;42.054;24.546;2023-02-18T09:49:57;98688.72;;;16.15;29.60
20023;BME280;10172;42.054;24.546;2023-02-18T09:52:30;98673.56;;;16.46;29.87
20023;BME280;10172;42.054;24.546;2023-02-18T09:54:57;98680.25;;;17.03;29.39
20023;BME280;10172;42.054;24.546;2023-02-18T09:57:46;98669.88;;;17.19;29.17
20023;BME280;10172;42.054;24.546;2023-02-18T10:02:45;98653.63;;;17.30;29.24
20023;BME280;10172;42.054;24.546;2023-02-18T10:05:14;98649.16;;;17.10;29.07
20023;BME280;10172;42.054;24.546;2023-02-18T10:07:40;98639.44;;;17.28;28.53
20023;BME280;10172;42.054;24.546;2023-02-18T10:10:35;98646.25;;;17.62;28.91
20023;BME280;10172;42.054;24.546;2023-02-18T10:13:03;98642.16;;;18.06;27.88
20023;BME280;10172;42.054;24.546;2023-02-18T10:15:30;98635.16;;;17.65;28.29
20023;BME280;10172;42.054;24.546;2023-02-18T10:17:57;98619.88;;;17.66;28.33
20023;BME280;10172;42.054;24.546;2023-02-18T10:20:26;98620.47;;;18.08;28.72
20023;BME280;10172;42.054;24.546;2023-02-18T10:22:56;98612.69;;;18.05;28.19
20023;BME280;10172;42.054;24.546;2023-02-18T10:25:23;98597.78;;;18.29;28.52
20023;BME280;10172;42.054;24.546;2023-02-18T10:27:51;98590.56;;;18.49;28.20
20023;BME280;10172;42.054;24.546;2023-02-18T10:30:30;98581.53;;;19.32;27.57
20023;BME280;10172;42.054;24.546;2023-02-18T10:44:04;98578.69;;;20.99;25.27
20023;BME280;10172;42.054;24.546;2023-02-18T10:49:35;98558.91;;;20.39;25.56
20023;BME280;10172;42.054;24.546;2023-02-18T10:52:07;98551.59;;;20.82;25.33
20023;BME280;10172;42.054;24.546;2023-02-18T10:55:14;98554.19;;;21.42;25.04
20023;BME280;10172;42.054;24.546;2023-02-18T10:57:51;98520.53;;;20.09;25.91
20023;BME280;10172;42.054;24.546;2023-02-18T11:00:22;98564.06;;;19.71;26.32
20023;BME280;10172;42.054;24.546;2023-02-18T11:05:43;98536.53;;;20.03;26.89
20023;BME280;10172;42.054;24.546;2023-02-18T11:08:14;98554.06;;;19.19;27.94
20023;BME280;10172;42.054;24.546;2023-02-18T11:10:42;98545.50;;;19.05;27.79
20023;BME280;10172;42.054;24.546;2023-02-18T11:13:12;98543.72;;;19.77;27.93
20023;BME280;10172;42.054;24.546;2023-02-18T11:16:04;98540.59;;;20.76;26.51
20023;BME280;10172;42.054;24.546;2023-02-18T11:18:41;98550.03;;;20.46;26.71
20023;BME280;10172;42.054;24.546;2023-02-18T11:23:55;98533.94;;;21.04;26.57
20023;BME280;10172;42.054;24.546;2023-02-18T11:26:27;98536.34;;;21.07;26.51
20023;BME280;10172;42.054;24.546;2023-02-18T11:29:14;98525.28;;;21.34;25.98
20023;BME280;10172;42.054;24.546;2023-02-18T11:31:49;98511.19;;;21.15;25.84
20023;BME280;10172;42.054;24.546;2023-02-18T11:34:20;98504.63;;;21.41;26.07
20023;BME280;10172;42.054;24.546;2023-02-18T11:36:49;98513.88;;;21.15;26.46
20023;BME280;10172;42.054;24.546;2023-02-18T11:39:21;98509.41;;;21.64;26.00
20023;BME280;10172;42.054;24.546;2023-02-18T11:47:33;98521.00;;;20.82;26.69
20023;BME280;10172;42.054;24.546;2023-02-18T11:52:37;98512.25;;;20.88;27.83
20023;BME280;10172;42.054;24.546;2023-02-18T11:55:16;98488.81;;;20.29;28.04
20023;BME280;10172;42.054;24.546;2023-02-18T11:58:05;98499.31;;;20.74;28.11
20023;BME280;10172;42.054;24.546;2023-02-18T12:00:48;98495.44;;;21.10;27.90
20023;BME280;10172;42.054;24.546;2023-02-18T12:06:01;98503.09;;;21.23;27.27
20023;BME280;10172;42.054;24.546;2023-02-18T12:08:31;98482.19;;;20.99;27.32
20023;BME280;10172;42.054;24.546;2023-02-18T12:11:06;98488.34;;;20.42;28.40
20023;BME280;10172;42.054;24.546;2023-02-18T12:13:38;98484.44;;;20.10;28.48
20023;BME280;10172;42.054;24.546;2023-02-18T12:27:11;98479.00;;;20.62;28.67
20023;BME280;10172;42.054;24.546;2023-02-18T12:33:00;98469.09;;;20.37;29.18
20023;BME280;10172;42.054;24.546;2023-02-18T12:35:31;98458.00;;;20.48;29.15
20023;BME280;10172;42.054;24.546;2023-02-18T12:40:51;98471.06;;;19.83;29.08
20023;BME280;10172;42.054;24.546;2023-02-18T12:52:01;98456.41;;;20.71;28.55
20023;BME280;10172;42.054;24.546;2023-02-18T13:14:29;98418.72;;;20.69;29.49
20023;BME280;10172;42.054;24.546;2023-02-18T13:16:58;98429.28;;;19.95;30.22
20023;BME280;10172;42.054;24.546;2023-02-18T13:22:02;98422.38;;;20.18;29.81
20023;BME280;10172;42.054;24.546;2023-02-18T13:24:37;98423.25;;;20.61;29.87
20023;BME280;10172;42.054;24.546;2023-02-18T13:40:29;98411.09;;;21.23;28.41
20023;BME280;10172;42.054;24.546;2023-02-18T13:43:19;98417.03;;;21.67;28.74
20023;BME280;10172;42.054;24.546;2023-02-18T13:51:27;98408.09;;;20.26;30.22
20023;BME280;10172;42.054;24.546;2023-02-18T13:54:07;98409.88;;;20.51;30.04
20023;BME280;10172;42.054;24.546;2023-02-18T13:57:20;98394.94;;;20.81;30.08
20023;BME280;10172;42.054;24.546;2023-02-18T13:59:58;98398.75;;;21.36;29.32
20023;BME280;10172;42.054;24.546;2023-02-18T14:02:32;98403.81;;;21.80;28.75
20023;BME280;10172;42.054;24.546;2023-02-18T14:10:13;98403.81;;;21.72;28.53
20023;BME280;10172;42.054;24.546;2023-02-18T14:17:42;98402.63;;;22.07;28.51
20023;BME280;10172;42.054;24.546;2023-02-18T14:22:48;98404.72;;;22.43;28.07
20023;BME280;10172;42.054;24.546;2023-02-18T14:27:49;98403.69;;;21.73;28.62
20023;BME280;10172;42.054;24.546;2023-02-18T14:32:50;98411.25;;;22.02;27.96
20023;BME280;10172;42.054;24.546;2023-02-18T14:41:40;98403.31;;;22.47;28.47
20023;BME280;10172;42.054;24.546;2023-02-18T14:51:49;98405.91;;;22.80;26.92
20023;BME280;10172;42.054;24.546;2023-02-18T14:54:18;98398.88;;;22.93;27.14
20023;BME280;10172;42.054;24.546;2023-02-18T14:57:04;98402.84;;;21.89;27.68
20023;BME280;10172;42.054;24.546;2023-02-18T14:59:39;98394.66;;;22.60;27.39
20023;BME280;10172;42.054;24.546;2023-02-18T15:02:22;98391.13;;;22.04;28.41
20023;BME280;10172;42.054;24.546;2023-02-18T15:04:52;98392.69;;;21.51;29.48
20023;BME280;10172;42.054;24.546;2023-02-18T15:07:19;98392.44;;;21.04;31.15
20023;BME280;10172;42.054;24.546;2023-02-18T15:09:52;98396.50;;;20.42;32.50
20023;BME280;10172;42.054;24.546;2023-02-18T15:12:20;98409.84;;;20.93;31.74
20023;BME280;10172;42.054;24.546;2023-02-18T15:14:49;98395.69;;;19.64;34.08
20023;BME280;10172;42.054;24.546;2023-02-18T15:17:21;98406.50;;;19.64;34.73
20023;BME280;10172;42.054;24.546;2023-02-18T15:19:51;98401.66;;;19.50;34.97
20023;BME280;10172;42.054;24.546;2023-02-18T15:22:20;98409.72;;;18.79;36.04
20023;BME280;10172;42.054;24.546;2023-02-18T15:24:46;98407.22;;;18.14;37.67
20023;BME280;10172;42.054;24.546;2023-02-18T15:27:25;98401.41;;;17.53;38.70
20023;BME280;10172;42.054;24.546;2023-02-18T15:30:19;98403.00;;;17.55;37.82
20023;BME280;10172;42.054;24.546;2023-02-18T15:32:45;98392.09;;;17.09;39.49
20023;BME280;10172;42.054;24.546;2023-02-18T15:35:18;98399.75;;;17.61;38.19
20023;BME280;10172;42.054;24.546;2023-02-18T15:37:45;98415.03;;;16.94;39.31
20023;BME280;10172;42.054;24.546;2023-02-18T15:40:13;98394.78;;;17.09;38.61
20023;BME280;10172;42.054;24.546;2023-02-18T15:42:39;98390.09;;;17.49;36.97
20023;BME280;10172;42.054;24.546;2023-02-18T15:47:45;98408.16;;;17.85;37.76
20023;BME280;10172;42.054;24.546;2023-02-18T15:50:35;98392.53;;;17.43;38.31
20023;BME280;10172;42.054;24.546;2023-02-18T15:53:10;98414.06;;;17.99;36.91
20023;BME280;10172;42.054;24.546;2023-02-18T15:55:40;98413.31;;;18.43;35.42
20023;BME280;10172;42.054;24.546;2023-02-18T15:58:27;98413.34;;;17.41;38.71
20023;BME280;10172;42.054;24.546;2023-02-18T16:01:03;98406.66;;;16.87;40.40
20023;BME280;10172;42.054;24.546;2023-02-18T16:03:31;98411.66;;;17.30;38.55
20023;BME280;10172;42.054;24.546;2023-02-18T16:06:25;98413.44;;;17.77;37.58